Time;durP1;ratioP1;P1;durP2;ratioP2;P2;SDS_P1;SDS_P2;PMS_P1;PMS_P2;Temp;Humidity;BMP_temperature;BMP_pressure;BME280_temperature;BME280_humidity;BME280_pressure;Samples;Min_cycle;Max_cycle;Signal;HPM_P1;HPM_P2
2022/07/14 00:00:05;;;;;;;5.82;0.52;;;15.20;99.90;;;;;;5014655;28;20040;-74
2022/07/14 00:02:31;;;;;;;4.15;0.30;;;15.10;99.90;;;;;;5015892;28;20049;-74
2022/07/14 00:04:57;;;;;;;1.40;0.20;;;15.10;99.90;;;;;;5015793;28;20075;-74
2022/07/14 00:07:22;;;;;;;3.03;0.40;;;15.00;99.90;;;;;;5016005;28;20084;-74
2022/07/14 00:09:48;;;;;;;2.75;0.35;;;15.00;99.90;;;;;;5000045;28;20644;-74
2022/07/14 00:12:13;;;;;;;4.20;0.40;;;15.00;99.90;;;;;;5008507;28;20026;-74
2022/07/14 00:14:39;;;;;;;3.10;0.38;;;15.00;99.90;;;;;;4997262;28;20037;-74
2022/07/14 00:17:05;;;;;;;3.60;0.40;;;15.10;99.90;;;;;;5008127;28;20134;-74
2022/07/14 00:19:30;;;;;;;3.20;0.52;;;15.10;99.90;;;;;;5024538;28;20029;-73
2022/07/14 00:21:57;;;;;;;2.88;0.30;;;15.20;99.90;;;;;;5026865;28;20385;-74
2022/07/14 00:24:22;;;;;;;4.45;0.50;;;15.20;99.90;;;;;;5028375;28;20498;-74
2022/07/14 00:26:48;;;;;;;2.65;0.35;;;15.10;99.90;;;;;;5027240;28;20044;-74
2022/07/14 00:29:14;;;;;;;3.15;0.40;;;15.10;99.90;;;;;;5027066;28;20037;-73
2022/07/14 00:31:39;;;;;;;9.32;0.40;;;15.00;99.90;;;;;;5026408;28;20091;-74
2022/07/14 00:34:05;;;;;;;8.82;1.23;;;15.00;99.90;;;;;;5025660;28;20080;-79
2022/07/14 00:36:31;;;;;;;5.60;0.50;;;15.00;99.90;;;;;;5026134;28;20033;-74
2022/07/14 00:38:57;;;;;;;2.38;0.50;;;15.00;99.90;;;;;;5025489;28;20053;-75
2022/07/14 00:41:23;;;;;;;4.75;0.55;;;14.90;99.90;;;;;;5009231;28;20025;-74
2022/07/14 00:43:49;;;;;;;3.92;0.50;;;14.90;99.90;;;;;;5008144;28;20406;-74
2022/07/14 00:46:15;;;;;;;5.65;0.50;;;14.80;99.90;;;;;;5027327;28;20371;-74
2022/07/14 00:48:41;;;;;;;3.35;0.60;;;14.80;99.90;;;;;;4992978;28;20041;-74
2022/07/14 00:51:06;;;;;;;4.90;0.45;;;14.70;99.90;;;;;;5026736;28;20033;-74
2022/07/14 00:53:32;;;;;;;4.72;0.40;;;14.70;99.90;;;;;;5009265;28;20037;-74
2022/07/14 00:55:58;;;;;;;5.90;0.50;;;14.70;99.90;;;;;;5025997;28;20036;-74
2022/07/14 00:58:24;;;;;;;5.07;0.47;;;14.70;99.90;;;;;;5025798;28;20034;-74
2022/07/14 01:00:50;;;;;;;4.72;0.60;;;14.70;99.90;;;;;;5010138;28;20370;-74
2022/07/14 01:03:15;;;;;;;4.78;0.47;;;14.70;99.90;;;;;;5026970;28;20026;-74
2022/07/14 01:05:41;;;;;;;3.10;0.43;;;14.70;99.90;;;;;;5010176;28;20036;-74
2022/07/14 01:08:07;;;;;;;3.22;0.47;;;14.70;99.90;;;;;;5024788;28;20379;-73
2022/07/14 01:10:33;;;;;;;5.75;0.50;;;14.70;99.90;;;;;;5025748;28;20120;-74
2022/07/14 01:13:02;;;;;;;6.72;0.40;;;14.70;99.90;;;;;;5026627;28;20397;-74
2022/07/14 01:15:28;;;;;;;3.15;0.40;;;14.70;99.90;;;;;;5027090;28;20131;-74
2022/07/14 01:17:54;;;;;;;2.55;0.40;;;14.80;99.90;;;;;;5024281;28;20129;-74
2022/07/14 01:20:21;;;;;;;3.97;0.65;;;14.80;99.90;;;;;;5008609;28;20041;-73
2022/07/14 01:22:48;;;;;;;1.85;0.30;;;14.80;99.90;;;;;;5024811;28;20091;-74
2022/07/14 01:25:18;;;;;;;6.97;0.73;;;14.70;99.90;;;;;;5007930;28;20029;-74
2022/07/14 01:27:44;;;;;;;;;;;14.60;99.90;;;;;;5025834;28;20417;-73
2022/07/14 01:30:10;;;;;;;7.72;0.68;;;14.60;99.90;;;;;;5024405;28;19920;-74
2022/07/14 01:32:36;;;;;;;5.57;0.73;;;14.60;99.90;;;;;;4993327;28;20040;-74
2022/07/14 01:35:04;;;;;;;4.65;0.77;;;14.60;99.90;;;;;;5024882;28;20492;-73
2022/07/14 01:37:30;;;;;;;3.42;0.50;;;14.70;99.90;;;;;;5012356;28;20394;-74
2022/07/14 01:39:56;;;;;;;5.85;0.70;;;14.70;99.90;;;;;;5011642;28;20026;-73
2022/07/14 01:42:22;;;;;;;4.30;0.50;;;14.70;99.90;;;;;;5025394;28;20025;-74
2022/07/14 01:44:47;;;;;;;4.35;0.60;;;14.70;99.90;;;;;;5023552;28;20044;-75
2022/07/14 01:47:16;;;;;;;4.75;0.57;;;14.60;99.90;;;;;;5026723;28;20057;-73
2022/07/14 01:49:41;;;;;;;3.90;0.60;;;14.60;99.90;;;;;;5026062;28;20025;-74
2022/07/14 01:52:08;;;;;;;6.35;0.80;;;14.50;99.90;;;;;;5008776;28;20033;-74
2022/07/14 01:54:36;;;;;;;3.38;0.60;;;14.40;99.90;;;;;;5007025;28;20060;-74
2022/07/14 01:57:02;;;;;;;5.28;0.70;;;14.30;99.90;;;;;;5007633;28;20469;-74
2022/07/14 01:59:30;;;;;;;4.85;0.57;;;14.30;99.90;;;;;;5008965;28;20386;-74
2022/07/14 02:01:57;;;;;;;3.08;0.52;;;14.30;99.90;;;;;;5022840;28;20375;-73
2022/07/14 02:04:23;;;;;;;3.45;0.55;;;14.40;99.90;;;;;;5024755;28;20087;-74
2022/07/14 02:06:50;;;;;;;4.57;0.55;;;14.40;99.90;;;;;;5007674;28;20033;-74
2022/07/14 02:12:10;;;;;;;4.30;0.70;;;14.30;99.90;;;;;;5013238;28;20047;-73
2022/07/14 02:12:11;;;;;;;3.25;0.50;;;14.20;99.90;;;;;;5024060;28;20030;-73
2022/07/14 02:14:38;;;;;;;1.58;0.50;;;14.20;99.90;;;;;;4996196;28;20057;-73
2022/07/14 02:17:03;;;;;;;3.63;0.77;;;14.20;99.90;;;;;;5040226;28;20190;-74
2022/07/14 02:19:29;;;;;;;3.20;0.55;;;14.10;99.90;;;;;;5000375;28;20029;-74
2022/07/14 02:21:55;;;;;;;4.03;0.50;;;14.00;99.90;;;;;;5023250;28;20040;-73
2022/07/14 02:24:22;;;;;;;3.60;0.50;;;13.90;99.90;;;;;;5023233;28;20030;-74
2022/07/14 02:26:51;;;;;;;5.97;0.75;;;13.90;99.90;;;;;;5024268;28;20116;-74
2022/07/14 02:29:21;;;;;;;3.25;0.50;;;13.90;99.90;;;;;;5011033;28;20509;-74
2022/07/14 02:31:47;;;;;;;3.58;0.50;;;13.80;99.90;;;;;;5024057;28;20025;-74
2022/07/14 02:34:15;;;;;;;2.28;0.40;;;13.80;99.90;;;;;;5011856;28;20123;-74
2022/07/14 02:36:41;;;;;;;2.85;0.50;;;13.80;99.90;;;;;;5022723;28;20384;-74
2022/07/14 02:39:07;;;;;;;1.98;0.60;;;13.80;99.90;;;;;;5022735;28;20086;-74
2022/07/14 02:41:33;;;;;;;4.20;0.90;;;13.70;99.90;;;;;;5022894;28;20033;-74
2022/07/14 02:43:59;;;;;;;2.63;0.50;;;13.70;99.90;;;;;;5021634;28;20029;-73
2022/07/14 02:46:24;;;;;;;3.72;0.60;;;13.70;99.90;;;;;;5023856;28;20036;-74
2022/07/14 02:48:51;;;;;;;3.28;0.70;;;13.70;99.90;;;;;;5023776;28;20041;-74
2022/07/14 02:51:17;;;;;;;2.90;0.45;;;13.70;99.90;;;;;;5008068;28;20514;-73
2022/07/14 02:53:44;;;;;;;1.60;0.40;;;13.70;99.90;;;;;;5021612;28;20367;-74
2022/07/14 02:56:10;;;;;;;2.45;0.50;;;13.80;99.90;;;;;;5000092;28;20032;-74
2022/07/14 02:58:37;;;;;;;1.95;0.70;;;13.70;99.90;;;;;;5022392;28;20053;-73
2022/07/14 03:01:05;;;;;;;2.40;0.98;;;13.70;99.90;;;;;;5021531;28;20159;-74
2022/07/14 03:03:32;;;;;;;2.75;0.40;;;13.60;99.90;;;;;;5039370;28;20140;-74
2022/07/14 03:05:57;;;;;;;3.92;0.52;;;13.60;99.90;;;;;;5022739;28;20731;-74
2022/07/14 03:08:23;;;;;;;3.22;0.60;;;13.60;99.90;;;;;;5003307;28;20036;-74
2022/07/14 03:10:49;;;;;;;4.05;0.95;;;13.60;99.90;;;;;;5011979;28;20037;-74
2022/07/14 03:13:15;;;;;;;3.30;0.60;;;13.60;99.90;;;;;;5006900;28;20492;-73
2022/07/14 03:15:43;;;;;;;2.75;0.77;;;13.50;99.90;;;;;;5007188;28;20021;-73
2022/07/14 03:18:09;;;;;;;1.98;0.40;;;13.60;99.90;;;;;;5008284;28;20033;-74
2022/07/14 03:20:37;;;;;;;3.67;0.88;;;13.50;99.90;;;;;;5008344;28;20584;-74
2022/07/14 03:23:03;;;;;;;2.97;0.50;;;13.50;99.90;;;;;;4998791;28;20034;-74
2022/07/14 03:25:29;;;;;;;4.45;0.60;;;13.40;99.90;;;;;;5007883;28;22050;-74
2022/07/14 03:27:56;;;;;;;2.70;0.60;;;13.30;99.90;;;;;;4994263;28;20240;-74
2022/07/14 03:30:27;;;;;;;2.35;0.40;;;13.20;99.90;;;;;;5024847;28;20087;-74
2022/07/14 03:32:54;;;;;;;3.25;0.50;;;13.20;99.90;;;;;;5023286;28;20032;-73
2022/07/14 03:35:19;;;;;;;4.70;0.75;;;13.20;99.90;;;;;;5024325;28;20037;-74
2022/07/14 03:37:45;;;;;;;3.67;0.50;;;13.10;99.90;;;;;;5013725;28;20085;-74
2022/07/14 03:40:12;;;;;;;3.95;0.45;;;13.10;99.90;;;;;;5015136;28;20033;-74
2022/07/14 03:42:37;;;;;;;2.42;0.50;;;13.10;99.90;;;;;;5005962;28;20029;-75
2022/07/14 03:45:04;;;;;;;2.25;0.40;;;13.00;99.90;;;;;;5021747;28;20102;-74
2022/07/14 03:47:30;;;;;;;3.28;0.68;;;13.00;99.90;;;;;;5001660;28;20025;-74
2022/07/14 03:49:56;;;;;;;3.55;0.47;;;13.00;99.90;;;;;;5023875;28;20032;-75
2022/07/14 03:52:22;;;;;;;2.83;0.40;;;13.00;99.90;;;;;;5022781;28;20036;-74
2022/07/14 03:54:49;;;;;;;4.57;0.50;;;13.00;99.90;;;;;;5022596;28;20519;-73
2022/07/14 03:57:18;;;;;;;2.85;0.40;;;13.00;99.90;;;;;;5024703;28;20026;-74
2022/07/14 03:59:44;;;;;;;3.75;0.63;;;13.00;99.90;;;;;;5026372;28;20029;-74
2022/07/14 04:02:13;;;;;;;3.05;1.00;;;13.10;99.90;;;;;;5015860;28;20083;-74
2022/07/14 04:04:39;;;;;;;3.95;0.50;;;13.10;99.90;;;;;;5025547;28;20041;-74
2022/07/14 04:07:10;;;;;;;4.13;0.45;;;13.10;99.90;;;;;;4999014;28;20036;-74
2022/07/14 04:09:36;;;;;;;;;;;13.10;99.90;;;;;;5025320;28;20370;-77
2022/07/14 04:12:02;;;;;;;2.38;0.50;;;13.10;99.90;;;;;;5010880;28;20448;-74
2022/07/14 04:14:29;;;;;;;2.83;0.45;;;13.10;99.90;;;;;;5019331;28;20030;-74
2022/07/14 04:16:55;;;;;;;4.03;0.52;;;13.10;99.90;;;;;;4997232;28;20047;-74
2022/07/14 04:19:21;;;;;;;3.35;0.77;;;13.10;99.90;;;;;;5019235;28;20048;-74
2022/07/14 04:21:47;;;;;;;3.17;0.50;;;13.10;99.90;;;;;;5025809;28;20402;-74
2022/07/14 04:24:14;;;;;;;6.70;0.80;;;13.10;99.90;;;;;;5025650;28;20172;-74
2022/07/14 04:26:42;;;;;;;4.65;0.50;;;13.00;99.90;;;;;;5011527;28;20057;-74
2022/07/14 04:29:08;;;;;;;5.03;0.60;;;13.10;99.90;;;;;;5029157;28;20042;-74
2022/07/14 04:31:35;;;;;;;4.75;0.80;;;13.10;99.90;;;;;;5012127;28;20389;-74
2022/07/14 04:34:01;;;;;;;5.30;1.02;;;13.10;99.90;;;;;;5024496;28;20045;-74
2022/07/14 04:36:28;;;;;;;2.38;0.47;;;13.20;99.90;;;;;;5040885;28;20033;-74
2022/07/14 04:38:56;;;;;;;3.35;0.60;;;13.30;99.90;;;;;;5010470;28;20041;-74
2022/07/14 04:41:23;;;;;;;3.83;0.60;;;13.30;99.90;;;;;;5030846;28;20038;-74
2022/07/14 04:43:49;;;;;;;2.35;0.70;;;13.40;99.90;;;;;;5024302;28;20434;-76
2022/07/14 04:46:15;;;;;;;3.55;0.70;;;13.60;99.90;;;;;;5002571;28;20033;-75
2022/07/14 04:54:17;;;;;;;3.10;0.70;;;13.90;99.90;;;;;;5029179;28;20091;-74
2022/07/14 04:56:50;;;;;;;2.67;0.50;;;13.90;99.90;;;;;;5025053;28;20026;-74
2022/07/14 04:59:16;;;;;;;3.92;0.60;;;14.00;99.90;;;;;;5014906;28;20025;-74
2022/07/14 05:01:42;;;;;;;7.32;1.10;;;14.00;99.90;;;;;;5009574;28;20493;-74
2022/07/14 05:04:08;;;;;;;5.28;0.70;;;14.00;99.90;;;;;;5010962;28;20037;-74
2022/07/14 05:06:35;;;;;;;4.30;0.70;;;14.10;99.90;;;;;;5024120;28;20021;-74
2022/07/14 05:09:02;;;;;;;6.82;0.80;;;14.10;99.90;;;;;;4996835;28;20080;-74
2022/07/14 05:11:29;;;;;;;6.95;1.30;;;14.30;99.90;;;;;;5007311;28;20386;-74
2022/07/14 05:13:55;;;;;;;5.35;1.05;;;14.20;99.90;;;;;;5012404;28;20033;-75
2022/07/14 05:16:21;;;;;;;5.22;0.90;;;14.30;99.90;;;;;;5014701;28;20104;-74
2022/07/14 05:18:47;;;;;;;6.53;1.30;;;14.40;99.90;;;;;;5008479;28;20508;-74
2022/07/14 05:21:14;;;;;;;4.75;0.95;;;14.50;99.90;;;;;;4996419;28;20029;-74
2022/07/14 05:23:40;;;;;;;5.78;0.70;;;14.60;99.90;;;;;;5024119;28;20021;-75
2022/07/14 05:26:10;;;;;;;5.15;0.98;;;14.80;99.90;;;;;;5007912;28;20469;-75
2022/07/14 05:28:36;;;;;;;5.10;0.88;;;14.90;99.90;;;;;;4997730;28;20403;-75
2022/07/14 05:31:03;;;;;;;4.13;0.65;;;15.00;99.90;;;;;;5023826;28;20030;-74
2022/07/14 05:33:36;;;;;;;3.95;0.63;;;15.20;99.90;;;;;;5009184;28;20036;-75
2022/07/14 05:36:03;;;;;;;6.05;1.13;;;15.30;99.90;;;;;;5009057;28;20428;-75
2022/07/14 05:38:31;;;;;;;5.43;0.73;;;15.10;99.90;;;;;;5013013;28;20430;-75
2022/07/14 05:40:58;;;;;;;7.75;1.20;;;15.40;99.90;;;;;;5041628;28;20051;-75
2022/07/14 05:43:25;;;;;;;7.47;1.02;;;15.40;99.90;;;;;;5024886;28;20103;-75
2022/07/14 05:45:50;;;;;;;9.88;1.35;;;15.50;99.90;;;;;;5013824;28;20025;-75
2022/07/14 05:48:16;;;;;;;4.18;0.70;;;15.60;99.90;;;;;;5007655;28;20025;-75
2022/07/14 05:50:41;;;;;;;6.78;1.00;;;15.60;99.90;;;;;;5023436;28;20051;-74
2022/07/14 05:53:07;;;;;;;5.68;1.17;;;15.50;99.90;;;;;;5004775;28;20063;-75
2022/07/14 05:55:33;;;;;;;5.15;0.70;;;15.70;99.90;;;;;;5023566;28;20116;-75
2022/07/14 05:57:59;;;;;;;6.72;0.80;;;15.90;99.90;;;;;;4995706;28;20527;-75
2022/07/14 06:00:24;;;;;;;6.30;1.10;;;16.00;99.90;;;;;;5024346;28;20052;-74
2022/07/14 06:02:51;;;;;;;4.80;0.63;;;16.30;99.90;;;;;;5019864;28;20052;-74
2022/07/14 06:05:21;;;;;;;3.25;0.50;;;16.40;99.90;;;;;;5007616;28;20030;-75
2022/07/14 06:07:47;;;;;;;4.93;0.50;;;16.80;99.90;;;;;;5024194;28;20614;-75
2022/07/14 06:10:13;;;;;;;4.43;0.40;;;17.10;99.90;;;;;;5020591;28;20034;-75
2022/07/14 06:12:40;;;;;;;4.13;0.50;;;17.30;99.90;;;;;;5007525;28;20355;-76
2022/07/14 06:15:08;;;;;;;7.85;0.77;;;17.60;99.90;;;;;;5004492;28;20025;-75
2022/07/14 06:17:35;;;;;;;6.95;1.05;;;17.30;99.90;;;;;;5020255;28;20040;-75
2022/07/14 06:20:09;;;;;;;2.10;0.40;;;17.50;99.90;;;;;;5023636;28;20094;-75
2022/07/14 06:22:40;;;;;;;2.75;0.45;;;17.60;99.90;;;;;;5024328;28;20033;-75
2022/07/14 06:25:06;;;;;;;7.65;0.60;;;17.70;99.90;;;;;;4997965;28;20083;-74
2022/07/14 06:27:32;;;;;;;3.20;0.30;;;17.00;99.90;;;;;;4993010;28;20264;-74
2022/07/14 06:29:58;;;;;;;6.35;0.40;;;17.50;99.90;;;;;;5011301;28;20076;-74
2022/07/14 06:32:23;;;;;;;3.13;0.30;;;18.00;99.90;;;;;;5024806;28;21833;-74
2022/07/14 06:34:51;;;;;;;4.15;0.60;;;18.00;99.90;;;;;;5024015;28;20029;-74
2022/07/14 06:37:21;;;;;;;;;;;17.60;99.90;;;;;;5024457;28;20017;-74
2022/07/14 06:39:47;;;;;;;4.22;0.30;;;18.00;99.90;;;;;;5008810;28;19970;-74
2022/07/14 06:42:14;;;;;;;5.30;0.40;;;18.30;99.90;;;;;;5009126;28;20025;-74
2022/07/14 06:44:43;;;;;;;5.15;0.50;;;18.20;99.90;;;;;;5012257;28;20025;-75
2022/07/14 06:47:09;;;;;;;3.70;0.40;;;17.80;99.90;;;;;;5022486;28;20442;-74
2022/07/14 06:49:35;;;;;;;3.22;0.30;;;17.80;99.90;;;;;;5023013;28;20040;-74
2022/07/14 06:52:00;;;;;;;3.65;0.30;;;18.10;99.90;;;;;;5023001;28;22124;-74
2022/07/14 06:54:26;;;;;;;2.42;0.20;;;18.60;99.90;;;;;;5011932;28;20041;-74
2022/07/14 06:56:52;;;;;;;2.95;0.20;;;18.80;99.90;;;;;;5022644;28;20029;-75
2022/07/14 06:59:17;;;;;;;2.97;0.28;;;19.30;99.90;;;;;;4995770;28;20477;-73
2022/07/14 07:01:43;;;;;;;4.03;0.40;;;19.30;99.90;;;;;;5022287;28;20032;-73
2022/07/14 07:04:09;;;;;;;2.38;0.30;;;19.00;99.90;;;;;;5020765;28;20040;-73
2022/07/14 07:06:43;;;;;;;2.42;0.20;;;19.60;99.90;;;;;;5025706;28;20048;-74
2022/07/14 07:09:09;;;;;;;1.83;0.20;;;19.80;99.90;;;;;;5023817;28;20049;-73
2022/07/14 07:11:35;;;;;;;1.17;0.20;;;19.80;99.90;;;;;;5023827;28;20504;-75
2022/07/14 07:14:01;;;;;;;3.65;0.30;;;20.20;99.90;;;;;;5023456;28;20105;-73
2022/07/14 07:16:28;;;;;;;2.28;0.25;;;20.30;99.90;;;;;;5011508;28;20036;-74
2022/07/14 07:18:53;;;;;;;4.13;0.30;;;20.20;99.90;;;;;;5023913;28;20891;-73
2022/07/14 07:21:20;;;;;;;3.15;0.30;;;20.40;99.90;;;;;;5022782;28;20018;-74
2022/07/14 07:23:50;;;;;;;2.55;0.20;;;20.60;99.90;;;;;;5001265;28;20144;-74
2022/07/14 07:26:17;;;;;;;4.15;0.43;;;20.40;99.90;;;;;;5022906;28;20368;-74
2022/07/14 07:28:43;;;;;;;3.70;0.30;;;20.30;99.90;;;;;;5024902;28;20401;-73
2022/07/14 07:31:09;;;;;;;3.00;0.30;;;19.80;99.90;;;;;;5014840;28;20056;-73
2022/07/14 07:33:35;;;;;;;2.80;0.20;;;20.10;99.90;;;;;;4998165;28;20472;-73
2022/07/14 07:36:01;;;;;;;4.55;0.45;;;20.70;99.90;;;;;;5025729;28;20044;-74
2022/07/14 07:38:27;;;;;;;2.53;0.25;;;20.10;99.90;;;;;;5024728;28;20138;-74
2022/07/14 07:40:53;;;;;;;3.38;0.30;;;19.90;99.90;;;;;;5008991;28;20030;-74
2022/07/14 07:43:22;;;;;;;5.22;0.32;;;20.30;99.90;;;;;;5028224;28;20025;-74
2022/07/14 07:45:51;;;;;;;2.13;0.20;;;20.10;99.90;;;;;;5026795;28;20029;-74
2022/07/14 07:48:17;;;;;;;5.95;0.40;;;20.60;99.90;;;;;;5027210;28;20395;-74
2022/07/14 07:50:44;;;;;;;5.07;0.32;;;19.90;99.90;;;;;;5028973;28;20121;-74
2022/07/14 07:53:11;;;;;;;4.60;0.30;;;19.60;99.90;;;;;;5009155;28;20032;-73
2022/07/14 07:55:36;;;;;;;4.28;0.30;;;19.80;99.90;;;;;;5024856;28;20029;-73
2022/07/14 07:58:02;;;;;;;4.78;0.30;;;19.60;99.90;;;;;;5014314;28;20413;-74
2022/07/14 08:00:30;;;;;;;2.38;0.20;;;19.80;99.90;;;;;;5024871;28;20060;-73
2022/07/14 08:02:57;;;;;;;4.65;0.30;;;20.60;99.90;;;;;;5009812;28;20137;-73
2022/07/14 08:05:25;;;;;;;1.52;0.20;;;20.60;99.90;;;;;;4995066;28;20068;-73
2022/07/14 08:07:51;;;;;;;3.42;0.20;;;21.30;99.90;;;;;;5027704;28;20465;-73
2022/07/14 08:10:18;;;;;;;3.00;0.40;;;20.30;99.90;;;;;;5026279;28;20120;-73
2022/07/14 08:12:43;;;;;;;2.55;0.45;;;20.30;99.90;;;;;;5027941;28;20059;-73
2022/07/14 08:15:10;;;;;;;2.53;0.22;;;20.60;99.90;;;;;;5007781;28;20492;-73
2022/07/14 08:17:36;;;;;;;3.50;0.20;;;20.30;99.90;;;;;;5014355;28;20483;-75
2022/07/14 08:20:02;;;;;;;2.35;0.20;;;20.70;99.90;;;;;;5024673;28;20051;-74
2022/07/14 08:22:28;;;;;;;3.90;0.20;;;20.40;99.90;;;;;;5027076;28;20417;-73
2022/07/14 08:24:56;;;;;;;5.93;0.52;;;20.20;99.90;;;;;;5026323;28;20025;-74
2022/07/14 08:27:22;;;;;;;2.90;0.25;;;19.80;99.90;;;;;;5010119;28;20021;-73
2022/07/14 08:29:49;;;;;;;3.08;0.22;;;20.30;99.90;;;;;;5009474;28;20064;-73
2022/07/14 08:32:14;;;;;;;2.13;0.20;;;20.80;99.90;;;;;;5025656;28;20079;-74
2022/07/14 08:34:40;;;;;;;2.92;0.30;;;20.80;99.90;;;;;;5026128;28;20047;-73
2022/07/14 08:37:06;;;;;;;3.22;0.30;;;20.60;99.90;;;;;;5026812;28;20049;-73
2022/07/14 08:39:33;;;;;;;2.80;0.30;;;20.70;99.90;;;;;;5013111;28;20395;-74
2022/07/14 08:42:03;;;;;;;1.65;0.20;;;20.80;99.90;;;;;;5010163;28;20094;-74
2022/07/14 08:44:29;;;;;;;2.40;0.20;;;21.10;99.90;;;;;;5026615;28;20033;-74
2022/07/14 08:46:55;;;;;;;2.33;0.20;;;21.00;99.90;;;;;;5008815;28;20028;-74
2022/07/14 08:49:21;;;;;;;2.95;0.20;;;21.40;99.90;;;;;;5027610;28;20059;-74
2022/07/14 08:51:49;;;;;;;3.17;0.20;;;22.00;99.90;;;;;;4993280;28;20517;-73
2022/07/14 08:54:15;;;;;;;1.05;0.10;;;21.50;99.90;;;;;;5026336;28;20035;-74
2022/07/14 08:56:41;;;;;;;1.55;0.10;;;22.20;99.90;;;;;;5025901;28;20359;-74
2022/07/14 08:59:08;;;;;;;2.97;0.20;;;22.60;99.90;;;;;;5041048;28;20411;-74
2022/07/14 09:01:34;;;;;;;2.83;0.20;;;22.30;99.90;;;;;;5013601;28;20404;-74
2022/07/14 09:04:01;;;;;;;2.60;0.32;;;21.80;99.90;;;;;;4997801;28;20285;-74
2022/07/14 09:06:54;;;;;;;1.35;0.10;;;22.40;99.90;;;;;;5041799;28;20541;-74
2022/07/14 09:09:25;;;;;;;0.95;0.10;;;23.10;99.90;;;;;;5011924;28;20054;-74
2022/07/14 09:12:10;;;;;;;1.33;0.20;;;23.40;99.90;;;;;;5023464;28;20029;-75
2022/07/14 09:17:52;;;;;;;2.53;0.20;;;22.70;99.90;;;;;;5026410;28;20191;-74
2022/07/14 09:20:19;;;;;;;3.90;0.17;;;22.20;99.90;;;;;;5003122;28;20120;-75
2022/07/14 09:22:44;;;;;;;2.25;0.20;;;23.00;99.90;;;;;;5025189;28;20116;-74
2022/07/14 09:25:15;;;;;;;2.17;0.10;;;23.10;99.90;;;;;;5025273;28;20029;-74
2022/07/14 09:27:42;;;;;;;4.03;0.20;;;23.80;99.90;;;;;;5012708;28;20033;-75
2022/07/14 09:30:11;;;;;;;2.58;0.20;;;22.70;99.90;;;;;;5023775;28;20064;-75
2022/07/14 09:32:51;;;;;;;1.80;0.10;;;23.20;99.90;;;;;;5025787;28;20037;-75
2022/07/14 09:35:25;;;;;;;1.17;0.10;;;23.40;99.90;;;;;;5025661;28;20069;-74
2022/07/14 09:37:52;;;;;;;3.22;0.20;;;23.90;99.90;;;;;;5016016;28;20426;-74
2022/07/14 09:40:27;;;;;;;3.28;0.17;;;24.10;99.90;;;;;;5024815;28;20108;-74
2022/07/14 09:42:55;;;;;;;2.00;0.10;;;24.20;99.90;;;;;;5025359;28;20175;-74
2022/07/14 09:45:28;;;;;;;1.92;0.13;;;24.10;99.90;;;;;;5023707;28;20030;-74
2022/07/14 09:48:07;;;;;;;3.72;0.20;;;24.20;99.90;;;;;;5024859;28;20044;-74
2022/07/14 09:51:05;;;;;;;2.55;0.20;;;24.00;99.90;;;;;;5026827;28;20037;-75
2022/07/14 09:53:33;;;;;;;1.00;0.10;;;24.00;99.90;;;;;;5025701;28;20543;-75
2022/07/14 09:55:59;;;;;;;3.45;0.20;;;24.20;99.90;;;;;;5000358;28;20037;-74
2022/07/14 09:58:28;;;;;;;1.63;0.10;;;23.50;99.90;;;;;;5008116;28;20125;-74
2022/07/14 10:00:59;;;;;;;1.80;0.20;;;23.40;99.90;;;;;;5025500;28;20116;-74
2022/07/14 10:03:27;;;;;;;2.25;0.20;;;23.70;99.90;;;;;;5024277;28;20044;-75
2022/07/14 10:05:54;;;;;;;3.22;0.30;;;23.30;99.90;;;;;;5023818;28;20226;-74
2022/07/14 10:08:24;;;;;;;0.93;0.10;;;23.00;99.90;;;;;;5012261;28;20112;-74
2022/07/14 10:10:51;;;;;;;1.60;0.20;;;23.50;99.90;;;;;;5025226;28;20037;-74
2022/07/14 10:13:19;;;;;;;1.92;0.20;;;23.30;99.90;;;;;;5027820;28;20032;-74
2022/07/14 10:15:46;;;;;;;2.58;0.20;;;23.40;99.90;;;;;;5024455;28;20415;-74
2022/07/14 10:18:12;;;;;;;4.97;0.30;;;23.50;99.90;;;;;;5011229;28;20737;-74
2022/07/14 10:20:40;;;;;;;1.05;0.13;;;23.80;99.90;;;;;;5024053;28;20132;-74
2022/07/14 10:23:05;;;;;;;1.02;0.10;;;23.60;99.90;;;;;;5009600;28;20389;-74
2022/07/14 10:25:32;;;;;;;3.13;0.10;;;24.10;99.90;;;;;;5022537;28;20055;-75
2022/07/14 10:27:57;;;;;;;0.93;0.10;;;23.80;99.90;;;;;;5006422;28;20120;-74
2022/07/14 10:30:36;;;;;;;1.33;0.10;;;23.20;99.90;;;;;;5024762;28;20034;-74
2022/07/14 10:33:12;;;;;;;2.15;0.10;;;23.60;99.90;;;;;;5025376;28;20759;-74
2022/07/14 10:35:46;;;;;;;2.63;0.10;;;24.20;99.90;;;;;;5026900;28;20152;-74
2022/07/14 10:38:29;;;;;;;1.23;0.10;;;24.80;99.90;;;;;;5023676;28;20993;-75
2022/07/14 10:41:19;;;;;;;0.70;0.20;;;24.70;99.90;;;;;;5023310;28;20477;-74
2022/07/14 10:44:05;;;;;;;1.30;0.10;;;24.30;99.90;;;;;;5024422;28;20039;-74
2022/07/14 10:46:39;;;;;;;0.93;0.10;;;24.90;99.90;;;;;;5023633;28;20025;-74
2022/07/14 10:49:06;;;;;;;0.60;0.10;;;24.60;99.90;;;;;;4991730;28;20566;-75
2022/07/14 10:51:33;;;;;;;1.05;0.10;;;25.30;99.90;;;;;;5022943;28;20021;-74
2022/07/14 10:54:06;;;;;;;2.05;0.10;;;24.80;99.90;;;;;;5007231;28;20384;-74
2022/07/14 10:56:32;;;;;;;1.30;0.10;;;25.10;99.90;;;;;;5022880;28;20021;-75
2022/07/14 10:59:26;;;;;;;0.80;0.10;;;25.10;99.90;;;;;;5023861;28;20417;-74
2022/07/14 11:02:10;;;;;;;1.38;0.10;;;24.60;99.90;;;;;;5021571;28;20033;-74
2022/07/14 11:05:13;;;;;;;1.08;0.10;;;24.50;99.90;;;;;;5009538;28;20033;-74
2022/07/14 11:08:11;;;;;;;1.02;0.20;;;24.40;99.90;;;;;;5021567;28;20654;-74
2022/07/14 11:10:37;;;;;;;0.55;0.10;;;24.60;99.90;;;;;;4987286;28;20056;-75
2022/07/14 11:13:05;;;;;;;3.10;0.20;;;25.10;99.90;;;;;;5022700;28;20562;-74
2022/07/14 11:15:40;;;;;;;3.72;0.20;;;24.30;99.90;;;;;;5023303;28;20033;-76
2022/07/14 11:18:17;;;;;;;2.72;0.20;;;23.90;99.90;;;;;;5006000;28;20029;-74
2022/07/14 11:21:09;;;;;;;1.73;0.20;;;23.30;99.90;;;;;;5024097;28;20031;-74
2022/07/14 11:23:56;;;;;;;1.08;0.15;;;23.00;99.90;;;;;;5023657;28;20385;-74
2022/07/14 11:26:50;;;;;;;1.75;0.20;;;23.90;99.90;;;;;;5024810;28;20418;-74
2022/07/14 11:29:31;;;;;;;1.40;0.13;;;23.70;99.90;;;;;;5019061;28;20672;-74
2022/07/14 11:31:57;;;;;;;1.58;0.20;;;24.50;99.90;;;;;;5024337;28;20344;-74
2022/07/14 11:37:13;;;;;;;1.38;0.15;;;24.50;99.90;;;;;;5021933;28;20108;-74
2022/07/14 11:39:46;;;;;;;2.85;0.20;;;24.80;99.90;;;;;;5023362;28;20132;-74
2022/07/14 11:42:16;;;;;;;2.17;0.20;;;24.20;99.90;;;;;;5024445;28;20029;-74
2022/07/14 11:44:43;;;;;;;1.08;0.10;;;24.50;99.90;;;;;;5006579;28;20036;-74
2022/07/14 11:47:17;;;;;;;1.25;0.17;;;25.20;99.90;;;;;;5023579;28;20286;-74
2022/07/14 11:50:10;;;;;;;2.20;0.20;;;24.50;99.90;;;;;;5011021;28;20049;-74
2022/07/14 11:52:39;;;;;;;1.33;0.20;;;24.60;99.90;;;;;;5016950;28;20037;-74
2022/07/14 11:55:10;;;;;;;0.90;0.10;;;24.10;99.90;;;;;;5022131;28;20302;-74
2022/07/14 11:57:37;;;;;;;1.08;0.17;;;24.00;99.90;;;;;;5023935;28;20117;-74
2022/07/14 12:00:11;;;;;;;1.15;0.20;;;23.80;99.90;;;;;;5020449;28;20025;-74
2022/07/14 12:02:52;;;;;;;1.40;0.20;;;24.00;99.90;;;;;;5010719;28;20026;-74
2022/07/14 12:05:25;;;;;;;1.60;0.20;;;24.10;99.90;;;;;;5022072;28;20029;-74
2022/07/14 12:07:53;;;;;;;1.00;0.20;;;24.10;99.90;;;;;;5021625;28;20533;-73
2022/07/14 12:10:35;;;;;;;3.08;0.10;;;23.80;99.90;;;;;;5023273;28;20424;-74
2022/07/14 12:13:03;;;;;;;0.82;0.10;;;23.70;99.90;;;;;;5021787;28;20038;-77
2022/07/14 12:15:30;;;;;;;1.85;0.20;;;23.80;99.90;;;;;;5026102;28;20274;-74
2022/07/14 12:18:00;;;;;;;1.45;0.10;;;24.40;99.90;;;;;;5015104;28;20024;-74
2022/07/14 12:20:34;;;;;;;0.95;0.10;;;24.80;99.90;;;;;;5009414;28;20042;-74
2022/07/14 12:23:01;;;;;;;1.40;0.30;;;24.70;99.90;;;;;;5024388;28;20116;-74
2022/07/14 12:25:32;;;;;;;0.90;0.10;;;24.60;99.90;;;;;;5027014;28;20485;-74
2022/07/14 12:28:00;;;;;;;2.08;0.15;;;23.80;99.90;;;;;;5026461;28;20029;-74
2022/07/14 12:30:45;;;;;;;0.65;0.10;;;23.30;99.90;;;;;;5026263;28;20051;-74
2022/07/14 12:33:20;;;;;;;0.75;0.10;;;23.70;99.90;;;;;;5015389;28;20421;-74
2022/07/14 12:35:50;;;;;;;2.35;0.20;;;24.00;99.90;;;;;;5009246;28;20036;-74
2022/07/14 12:38:18;;;;;;;0.43;0.10;;;24.10;99.90;;;;;;5008670;28;20390;-74
2022/07/14 12:40:55;;;;;;;1.23;0.10;;;24.00;99.90;;;;;;5019245;28;20029;-73
2022/07/14 12:43:22;;;;;;;1.75;0.20;;;24.50;99.90;;;;;;5024990;28;20116;-74
2022/07/14 12:46:14;;;;;;;3.03;0.13;;;24.00;99.90;;;;;;5024960;28;20021;-74
2022/07/14 12:48:50;;;;;;;1.05;0.10;;;23.90;99.90;;;;;;5011830;28;20048;-73
2022/07/14 12:51:36;;;;;;;1.40;0.10;;;23.90;99.90;;;;;;5008096;28;20033;-74
2022/07/14 12:54:19;;;;;;;0.63;0.10;;;23.80;99.90;;;;;;5025014;28;20025;-73
2022/07/14 12:56:52;;;;;;;1.00;0.10;;;23.40;99.90;;;;;;5026549;28;20394;-73
2022/07/14 12:59:26;;;;;;;1.33;0.10;;;23.80;99.90;;;;;;5024122;28;20025;-74
2022/07/14 13:01:56;;;;;;;2.38;0.10;;;23.70;99.90;;;;;;5026110;28;20030;-73
2022/07/14 13:04:40;;;;;;;1.52;0.10;;;23.50;99.90;;;;;;5025097;28;20088;-73
2022/07/14 13:07:37;;;;;;;1.20;0.10;;;23.60;99.90;;;;;;5025135;28;20443;-73